Time;durP1;ratioP1;P1;durP2;ratioP2;P2;SDS_P1;SDS_P2;PMS_P1;PMS_P2;Temp;Humidity;BMP_temperature;BMP_pressure;BME280_temperature;BME280_humidity;BME280_pressure;Samples;Min_cycle;Max_cycle;Signal;HPM_P1;HPM_P2
2022/03/25 00:01:29;;;;;;;153.43;63.85;;;;;;;;;;5053641;28;20059;-71
2022/03/25 00:03:56;;;;;;;155.90;63.50;;;;;;;;;;5053415;28;20547;-71
2022/03/25 00:06:23;;;;;;;142.50;61.92;;;;;;;;;;5053018;28;20489;-71
2022/03/25 00:08:49;;;;;;;146.70;64.10;;;;;;;;;;5053270;28;20106;-71
2022/03/25 00:11:15;;;;;;;156.98;66.07;;;;;;;;;;5053073;28;20037;-71
2022/03/25 00:13:41;;;;;;;171.48;69.78;;;;;;;;;;5053047;28;20056;-71
2022/03/25 00:16:07;;;;;;;152.18;65.75;;;;;;;;;;5053138;28;20095;-71
2022/03/25 00:18:33;;;;;;;147.38;63.45;;;;;;;;;;5035267;28;20045;-71
2022/03/25 00:21:00;;;;;;;152.80;65.90;;;;;;;;;;5053345;28;20355;-71
2022/03/25 00:23:26;;;;;;;156.75;67.38;;;;;;;;;;5052936;28;20056;-71
2022/03/25 00:25:52;;;;;;;162.13;65.75;;;;;;;;;;5052848;28;20049;-71
2022/03/25 00:28:21;;;;;;;163.95;66.13;;;;;;;;;;5053100;28;20138;-71
2022/03/25 00:30:47;;;;;;;165.10;67.38;;;;;;;;;;5052746;28;20049;-71
2022/03/25 00:33:14;;;;;;;162.95;66.72;;;;;;;;;;5035174;28;20106;-70
2022/03/25 00:35:40;;;;;;;142.00;58.75;;;;;;;;;;5053150;28;20045;-73
2022/03/25 00:38:06;;;;;;;153.23;65.57;;;;;;;;;;5052957;28;20048;-70
2022/03/25 00:40:32;;;;;;;147.43;65.03;;;;;;;;;;5052988;28;20041;-71
2022/03/25 00:42:58;;;;;;;145.73;62.65;;;;;;;;;;5052665;28;20044;-71
2022/03/25 00:45:25;;;;;;;155.13;62.80;;;;;;;;;;5052626;28;20084;-70
2022/03/25 00:47:51;;;;;;;142.35;61.08;;;;;;;;;;5052760;28;20045;-71
2022/03/25 00:50:19;;;;;;;147.50;63.05;;;;;;;;;;5052907;28;20503;-71
2022/03/25 00:52:45;;;;;;;154.88;65.53;;;;;;;;;;5038716;28;20530;-70
2022/03/25 00:55:12;;;;;;;144.65;62.55;;;;;;;;;;5038937;28;20049;-71
2022/03/25 00:57:38;;;;;;;153.15;63.63;;;;;;;;;;5056647;28;20456;-70
2022/03/25 01:00:05;;;;;;;145.30;61.72;;;;;;;;;;5056579;28;20048;-71
2022/03/25 01:02:31;;;;;;;147.55;62.70;;;;;;;;;;5038691;28;20492;-71
2022/03/25 01:04:57;;;;;;;171.35;68.30;;;;;;;;;;5038515;28;20036;-70
2022/03/25 01:07:23;;;;;;;152.35;64.40;;;;;;;;;;5056245;28;20074;-71
2022/03/25 01:09:49;;;;;;;136.88;60.75;;;;;;;;;;5056171;28;20052;-71
2022/03/25 01:12:16;;;;;;;137.63;61.30;;;;;;;;;;5056194;28;20051;-71
2022/03/25 01:14:42;;;;;;;149.68;64.03;;;;;;;;;;5056442;28;20128;-71
2022/03/25 01:17:08;;;;;;;148.30;64.40;;;;;;;;;;5038502;28;20131;-71
2022/03/25 01:19:34;;;;;;;158.55;65.15;;;;;;;;;;5056409;28;20129;-71
2022/03/25 01:22:03;;;;;;;172.90;69.82;;;;;;;;;;5021763;28;20045;-71
2022/03/25 01:24:29;;;;;;;158.15;64.70;;;;;;;;;;5056254;28;20049;-71
2022/03/25 01:26:55;;;;;;;150.63;65.85;;;;;;;;;;5055612;28;20387;-71
2022/03/25 01:29:21;;;;;;;163.50;66.85;;;;;;;;;;5038335;28;20408;-71
2022/03/25 01:31:48;;;;;;;155.23;63.20;;;;;;;;;;5056219;28;20045;-71
2022/03/25 01:34:15;;;;;;;155.88;64.85;;;;;;;;;;5056070;28;20056;-71
2022/03/25 01:36:41;;;;;;;168.88;67.95;;;;;;;;;;5055893;28;20048;-71
2022/03/25 01:39:07;;;;;;;146.25;63.15;;;;;;;;;;5055748;28;20132;-71
2022/03/25 01:41:33;;;;;;;155.55;65.25;;;;;;;;;;5037619;28;20119;-71
2022/03/25 01:44:00;;;;;;;163.60;66.32;;;;;;;;;;5037838;28;20492;-71
2022/03/25 01:46:26;;;;;;;131.68;59.72;;;;;;;;;;5055659;28;20049;-71
2022/03/25 01:48:53;;;;;;;141.73;62.00;;;;;;;;;;5055518;28;20519;-71
2022/03/25 01:51:20;;;;;;;130.10;57.63;;;;;;;;;;5055710;28;20040;-71
2022/03/25 01:53:47;;;;;;;146.27;62.58;;;;;;;;;;5056180;28;20084;-71
2022/03/25 01:56:19;;;;;;;124.10;57.10;;;;;;;;;;5056909;28;20084;-71
2022/03/25 01:58:45;;;;;;;153.30;64.28;;;;;;;;;;5055597;28;20041;-71
2022/03/25 02:01:11;;;;;;;127.05;56.65;;;;;;;;;;5055313;28;20037;-71
2022/03/25 02:03:37;;;;;;;123.50;55.15;;;;;;;;;;5054259;28;20451;-71
2022/03/25 02:06:04;;;;;;;128.27;55.95;;;;;;;;;;5037213;28;20049;-71
2022/03/25 02:08:30;;;;;;;121.60;55.28;;;;;;;;;;5054955;28;20045;-71
2022/03/25 02:10:57;;;;;;;130.68;57.67;;;;;;;;;;5055075;28;20489;-71
2022/03/25 02:13:23;;;;;;;116.93;53.15;;;;;;;;;;5055241;28;20047;-71
2022/03/25 02:15:49;;;;;;;128.50;56.53;;;;;;;;;;5055156;28;20037;-71
2022/03/25 02:18:18;;;;;;;116.28;53.97;;;;;;;;;;5055172;28;20052;-72
2022/03/25 02:20:44;;;;;;;116.47;52.42;;;;;;;;;;5037350;28;20456;-71
2022/03/25 02:23:10;;;;;;;129.30;56.13;;;;;;;;;;5054787;28;20132;-72
2022/03/25 02:25:37;;;;;;;123.10;56.15;;;;;;;;;;5037076;28;20052;-72
2022/03/25 02:28:07;;;;;;;124.00;56.45;;;;;;;;;;5054970;28;20099;-71
2022/03/25 02:30:34;;;;;;;127.43;56.38;;;;;;;;;;5054958;28;20044;-71
2022/03/25 02:33:01;;;;;;;124.00;53.72;;;;;;;;;;5054693;28;20408;-71
2022/03/25 02:35:37;;;;;;;128.32;56.22;;;;;;;;;;5054927;28;20227;-71
2022/03/25 02:38:03;;;;;;;157.88;65.28;;;;;;;;;;5054943;28;20067;-71
2022/03/25 02:40:29;;;;;;;143.10;59.60;;;;;;;;;;5054373;28;20576;-71
2022/03/25 02:42:55;;;;;;;179.57;66.95;;;;;;;;;;5054321;28;20120;-71
2022/03/25 02:45:21;;;;;;;148.75;61.60;;;;;;;;;;5054522;28;20385;-71
2022/03/25 02:47:47;;;;;;;181.45;65.35;;;;;;;;;;5019825;28;20056;-72
2022/03/25 02:50:13;;;;;;;162.75;62.53;;;;;;;;;;5036276;28;20045;-71
2022/03/25 02:52:41;;;;;;;173.68;64.95;;;;;;;;;;5054437;28;20110;-71
2022/03/25 02:55:08;;;;;;;153.05;60.55;;;;;;;;;;5054402;28;20045;-71
2022/03/25 02:57:34;;;;;;;175.57;63.22;;;;;;;;;;5036563;28;20496;-71
2022/03/25 03:00:00;;;;;;;130.50;55.33;;;;;;;;;;5036725;28;20041;-71
2022/03/25 03:02:26;;;;;;;137.13;56.08;;;;;;;;;;5054000;28;20457;-71
2022/03/25 03:04:52;;;;;;;153.68;54.67;;;;;;;;;;5054383;28;20051;-71
2022/03/25 03:07:18;;;;;;;129.07;52.45;;;;;;;;;;5036011;28;20052;-71
2022/03/25 03:09:44;;;;;;;177.13;55.00;;;;;;;;;;5054095;28;20438;-71
2022/03/25 03:12:10;;;;;;;150.52;54.50;;;;;;;;;;5036446;28;20040;-71
2022/03/25 03:14:37;;;;;;;151.23;56.72;;;;;;;;;;5053832;28;20052;-71
2022/03/25 03:17:04;;;;;;;171.75;55.80;;;;;;;;;;5035971;28;20049;-71
2022/03/25 03:19:31;;;;;;;111.85;50.20;;;;;;;;;;5019462;28;20538;-71
2022/03/25 03:21:57;;;;;;;117.72;47.72;;;;;;;;;;5053745;28;20052;-71
2022/03/25 03:24:24;;;;;;;134.18;50.33;;;;;;;;;;5053992;28;20041;-71
2022/03/25 03:26:50;;;;;;;130.20;53.38;;;;;;;;;;5053646;28;20486;-71
2022/03/25 03:29:17;;;;;;;186.95;54.08;;;;;;;;;;5035782;28;20500;-71
2022/03/25 03:31:43;;;;;;;114.85;50.05;;;;;;;;;;5036044;28;20135;-71
2022/03/25 03:34:09;;;;;;;117.00;50.17;;;;;;;;;;5035609;28;20137;-71
2022/03/25 03:36:35;;;;;;;120.30;50.22;;;;;;;;;;5035708;28;20071;-71
2022/03/25 03:39:01;;;;;;;154.02;55.17;;;;;;;;;;5035654;28;20090;-71
2022/03/25 03:41:28;;;;;;;160.68;54.75;;;;;;;;;;5019109;28;20506;-71
2022/03/25 03:43:54;;;;;;;118.68;50.13;;;;;;;;;;5053131;28;20518;-71
2022/03/25 03:46:20;;;;;;;112.50;50.40;;;;;;;;;;5053251;28;20033;-71
2022/03/25 03:48:46;;;;;;;108.72;49.63;;;;;;;;;;5053091;28;20048;-71
2022/03/25 03:51:12;;;;;;;111.20;50.08;;;;;;;;;;5035730;28;20139;-71
2022/03/25 03:53:38;;;;;;;126.68;50.35;;;;;;;;;;5053400;28;20407;-71
2022/03/25 03:56:04;;;;;;;96.20;47.20;;;;;;;;;;5053290;28;20099;-71
2022/03/25 03:58:30;;;;;;;102.18;48.65;;;;;;;;;;5035226;28;20527;-71
2022/03/25 04:00:56;;;;;;;97.25;48.05;;;;;;;;;;5053160;28;20076;-71
2022/03/25 04:03:22;;;;;;;115.05;49.65;;;;;;;;;;5052843;28;20041;-71
2022/03/25 04:05:48;;;;;;;106.13;49.63;;;;;;;;;;5035147;28;20106;-71
2022/03/25 04:08:14;;;;;;;100.93;47.03;;;;;;;;;;5053182;28;20471;-71
2022/03/25 04:10:40;;;;;;;100.53;46.58;;;;;;;;;;5035106;28;20037;-71
2022/03/25 04:13:06;;;;;;;106.47;49.50;;;;;;;;;;5053019;28;20041;-71
2022/03/25 04:15:32;;;;;;;97.93;47.30;;;;;;;;;;5052826;28;20045;-71
2022/03/25 04:17:58;;;;;;;113.60;49.13;;;;;;;;;;5053460;28;20049;-71
2022/03/25 04:20:25;;;;;;;119.47;49.85;;;;;;;;;;5053297;28;20504;-71
2022/03/25 04:22:51;;;;;;;89.57;43.47;;;;;;;;;;5052942;28;20052;-71
2022/03/25 04:25:18;;;;;;;102.75;46.13;;;;;;;;;;5052949;28;20480;-71
2022/03/25 04:27:51;;;;;;;111.95;48.67;;;;;;;;;;5056903;28;20045;-71
2022/03/25 04:30:18;;;;;;;98.03;46.70;;;;;;;;;;5039264;28;20045;-71
2022/03/25 04:32:43;;;;;;;113.70;46.17;;;;;;;;;;5057296;28;20041;-71
2022/03/25 04:35:09;;;;;;;113.15;47.30;;;;;;;;;;5056945;28;20500;-71
2022/03/25 04:37:35;;;;;;;130.05;47.45;;;;;;;;;;5057149;28;20123;-71
2022/03/25 04:40:03;;;;;;;104.88;45.38;;;;;;;;;;5056684;28;20543;-71
2022/03/25 04:42:29;;;;;;;105.50;48.20;;;;;;;;;;5056737;28;20041;-71
2022/03/25 04:44:55;;;;;;;103.95;46.65;;;;;;;;;;5038688;28;20092;-71
2022/03/25 04:47:21;;;;;;;114.38;48.58;;;;;;;;;;5056409;28;20057;-71
2022/03/25 04:49:48;;;;;;;102.78;47.10;;;;;;;;;;5056719;28;20040;-71
2022/03/25 04:52:14;;;;;;;94.63;46.55;;;;;;;;;;5038663;28;20407;-71
2022/03/25 04:54:40;;;;;;;96.25;47.15;;;;;;;;;;5056912;28;20044;-71
2022/03/25 04:57:06;;;;;;;95.05;45.22;;;;;;;;;;5056639;28;20492;-71
2022/03/25 04:59:32;;;;;;;93.82;45.17;;;;;;;;;;5056237;28;20075;-71
2022/03/25 05:01:58;;;;;;;95.35;46.58;;;;;;;;;;5056798;28;20049;-71
2022/03/25 05:04:25;;;;;;;100.97;47.47;;;;;;;;;;5038668;28;20118;-71
2022/03/25 05:06:51;;;;;;;97.57;45.67;;;;;;;;;;5056310;28;20428;-71
2022/03/25 05:09:17;;;;;;;94.60;45.50;;;;;;;;;;5056910;28;20075;-71
2022/03/25 05:11:43;;;;;;;97.63;45.70;;;;;;;;;;5041234;28;20056;-73
2022/03/25 05:14:10;;;;;;;97.07;45.60;;;;;;;;;;5056212;28;20041;-71
2022/03/25 05:16:36;;;;;;;107.82;47.22;;;;;;;;;;5056778;28;20115;-71
2022/03/25 05:19:02;;;;;;;105.50;46.83;;;;;;;;;;5056155;28;20041;-71
2022/03/25 05:21:28;;;;;;;98.72;45.30;;;;;;;;;;5056350;28;20045;-71
2022/03/25 05:23:54;;;;;;;135.20;52.78;;;;;;;;;;5056257;28;20041;-71
2022/03/25 05:26:20;;;;;;;123.97;50.83;;;;;;;;;;5055847;28;20125;-71
2022/03/25 05:28:46;;;;;;;127.43;51.50;;;;;;;;;;5056180;28;20052;-71
2022/03/25 05:31:13;;;;;;;105.03;47.38;;;;;;;;;;5056159;28;20040;-71
2022/03/25 05:33:39;;;;;;;101.95;46.55;;;;;;;;;;5055711;28;20393;-71
2022/03/25 05:36:05;;;;;;;109.85;45.97;;;;;;;;;;5056163;28;20049;-71
2022/03/25 05:38:31;;;;;;;117.40;50.05;;;;;;;;;;5055630;28;20045;-71
2022/03/25 05:40:57;;;;;;;136.45;52.20;;;;;;;;;;5055674;28;20052;-71
2022/03/25 05:43:23;;;;;;;131.73;52.47;;;;;;;;;;5037490;28;20268;-71
2022/03/25 05:45:49;;;;;;;103.32;47.25;;;;;;;;;;5055510;28;20060;-71
2022/03/25 05:48:15;;;;;;;98.63;45.10;;;;;;;;;;5037827;28;20045;-71
2022/03/25 05:50:42;;;;;;;104.82;45.45;;;;;;;;;;5055446;28;20508;-71
2022/03/25 05:53:08;;;;;;;150.20;52.92;;;;;;;;;;5055462;28;20053;-71
2022/03/25 05:55:34;;;;;;;102.95;46.03;;;;;;;;;;5055200;28;20053;-71
2022/03/25 05:58:01;;;;;;;94.70;44.25;;;;;;;;;;5037714;28;20045;-71
2022/03/25 06:00:27;;;;;;;105.55;47.45;;;;;;;;;;5055239;28;20060;-71
2022/03/25 06:02:53;;;;;;;90.03;43.47;;;;;;;;;;5055619;28;20055;-71
2022/03/25 06:05:19;;;;;;;99.65;44.40;;;;;;;;;;5055328;28;20112;-72
2022/03/25 06:07:45;;;;;;;107.20;47.13;;;;;;;;;;5055172;28;20080;-71
2022/03/25 06:10:12;;;;;;;105.97;46.63;;;;;;;;;;5054859;28;20492;-73
2022/03/25 06:12:39;;;;;;;98.15;44.83;;;;;;;;;;5055195;28;20395;-71
2022/03/25 06:15:06;;;;;;;101.18;44.03;;;;;;;;;;5055040;28;20043;-72
2022/03/25 06:17:32;;;;;;;84.68;41.53;;;;;;;;;;5036972;28;20048;-71
2022/03/25 06:19:59;;;;;;;98.38;45.10;;;;;;;;;;5054743;28;20121;-72
2022/03/25 06:22:25;;;;;;;92.35;43.50;;;;;;;;;;5054848;28;20423;-72
2022/03/25 06:24:52;;;;;;;87.53;42.22;;;;;;;;;;5054401;28;20049;-72
2022/03/25 06:27:18;;;;;;;86.57;43.45;;;;;;;;;;5054836;28;20052;-72
2022/03/25 06:29:44;;;;;;;87.45;41.80;;;;;;;;;;5055020;28;20041;-72
2022/03/25 06:32:10;;;;;;;102.63;43.50;;;;;;;;;;5054877;28;20048;-73
2022/03/25 06:34:37;;;;;;;102.05;43.17;;;;;;;;;;5040685;28;20132;-72
2022/03/25 06:37:03;;;;;;;89.57;41.22;;;;;;;;;;5040771;28;20056;-72
2022/03/25 06:39:29;;;;;;;84.35;41.58;;;;;;;;;;5064093;28;20040;-72
2022/03/25 06:41:55;;;;;;;103.00;46.78;;;;;;;;;;5062674;28;20094;-71
2022/03/25 06:44:21;;;;;;;91.68;43.10;;;;;;;;;;5064414;28;20053;-71
2022/03/25 06:46:47;;;;;;;82.47;41.00;;;;;;;;;;5063610;28;20097;-71
2022/03/25 06:49:13;;;;;;;88.22;42.08;;;;;;;;;;5059215;28;20111;-71
2022/03/25 06:51:39;;;;;;;88.47;43.03;;;;;;;;;;5036965;28;20125;-71
2022/03/25 06:54:05;;;;;;;100.72;45.75;;;;;;;;;;5036644;28;20041;-71
2022/03/25 06:56:35;;;;;;;89.72;42.50;;;;;;;;;;5054313;28;20555;-71
2022/03/25 06:59:01;;;;;;;92.55;42.97;;;;;;;;;;5036529;28;20583;-71
2022/03/25 07:01:27;;;;;;;103.75;46.25;;;;;;;;;;5054237;28;20124;-71
2022/03/25 07:03:53;;;;;;;95.97;44.47;;;;;;;;;;5054072;28;20492;-71
2022/03/25 07:06:24;;;;;;;97.60;45.83;;;;;;;;;;5036760;28;20448;-71
2022/03/25 07:08:53;;;;;;;96.03;44.00;;;;;;;;;;5054465;28;20063;-71
2022/03/25 07:11:20;;;;;;;103.18;45.83;;;;;;;;;;5046157;28;20087;-71
2022/03/25 07:13:46;;;;;;;102.18;45.53;;;;;;;;;;5064725;28;20044;-71
2022/03/25 07:16:12;;;;;;;94.80;43.28;;;;;;;;;;5063558;28;20044;-71
2022/03/25 07:18:38;;;;;;;89.53;42.70;;;;;;;;;;5070346;28;20052;-71
2022/03/25 07:21:04;;;;;;;97.93;45.90;;;;;;;;;;5074177;28;20048;-71
2022/03/25 07:23:30;;;;;;;89.28;42.22;;;;;;;;;;5055014;28;20428;-71
2022/03/25 07:25:57;;;;;;;93.85;42.15;;;;;;;;;;5053633;28;20049;-71
2022/03/25 07:28:22;;;;;;;96.63;45.53;;;;;;;;;;5053860;28;20162;-71
2022/03/25 07:30:49;;;;;;;103.53;45.67;;;;;;;;;;5054217;28;20495;-71
2022/03/25 07:33:15;;;;;;;91.40;44.35;;;;;;;;;;5053644;28;20045;-71
2022/03/25 07:35:41;;;;;;;106.45;47.83;;;;;;;;;;5054024;28;20049;-71
2022/03/25 07:38:07;;;;;;;101.05;44.38;;;;;;;;;;5053804;28;20095;-72
2022/03/25 07:40:34;;;;;;;94.72;43.28;;;;;;;;;;5035787;28;20123;-71
2022/03/25 07:43:00;;;;;;;94.32;44.60;;;;;;;;;;5053536;28;20090;-72
2022/03/25 07:45:26;;;;;;;90.10;43.20;;;;;;;;;;5053570;28;20048;-71
2022/03/25 07:47:52;;;;;;;90.28;42.47;;;;;;;;;;5053401;28;20037;-72
2022/03/25 07:50:22;;;;;;;88.20;43.55;;;;;;;;;;5053443;28;20063;-72
2022/03/25 07:52:49;;;;;;;90.57;44.42;;;;;;;;;;5054126;28;20045;-73
2022/03/25 07:55:17;;;;;;;86.32;41.97;;;;;;;;;;5053684;28;20053;-71
2022/03/25 07:57:43;;;;;;;90.25;43.72;;;;;;;;;;5053407;28;20048;-72
2022/03/25 08:00:11;;;;;;;96.03;44.03;;;;;;;;;;5052811;28;20053;-72
2022/03/25 08:02:52;;;;;;;89.28;41.10;;;;;;;;;;5053704;28;20045;-72
2022/03/25 08:05:18;;;;;;;93.15;45.15;;;;;;;;;;5053219;28;20518;-72
2022/03/25 08:07:46;;;;;;;85.22;43.13;;;;;;;;;;5053146;28;20041;-72
2022/03/25 08:10:12;;;;;;;91.85;44.75;;;;;;;;;;5053962;28;20507;-72
2022/03/25 08:12:38;;;;;;;103.60;43.60;;;;;;;;;;5053281;28;20045;-72
2022/03/25 08:15:07;;;;;;;89.20;43.28;;;;;;;;;;5052642;28;20523;-72
2022/03/25 08:17:44;;;;;;;108.25;45.38;;;;;;;;;;5052404;28;20048;-72
2022/03/25 08:20:11;;;;;;;115.03;45.08;;;;;;;;;;5051323;28;20041;-72
2022/03/25 08:22:37;;;;;;;116.47;46.15;;;;;;;;;;5053392;28;20045;-72
2022/03/25 08:27:50;;;;;;;87.78;41.08;;;;;;;;;;5038352;28;20053;-72
2022/03/25 08:30:16;;;;;;;267.67;49.55;;;;;;;;;;5054338;28;20052;-72
2022/03/25 08:32:42;;;;;;;113.10;46.90;;;;;;;;;;5054637;28;20101;-73
2022/03/25 08:35:08;;;;;;;95.07;42.08;;;;;;;;;;5054528;28;20457;-72
2022/03/25 08:37:35;;;;;;;81.65;42.22;;;;;;;;;;5053417;28;20045;-72
2022/03/25 08:40:03;;;;;;;87.15;41.65;;;;;;;;;;5035283;28;20136;-72
2022/03/25 08:42:29;;;;;;;87.30;42.80;;;;;;;;;;5034685;28;20049;-72
2022/03/25 08:44:55;;;;;;;95.18;42.15;;;;;;;;;;5052018;28;20041;-72
2022/03/25 08:47:21;;;;;;;76.80;40.00;;;;;;;;;;5052189;28;20044;-72
2022/03/25 08:49:47;;;;;;;87.13;41.92;;;;;;;;;;5052519;28;20179;-72
2022/03/25 08:52:13;;;;;;;80.60;40.13;;;;;;;;;;5052607;28;20041;-72
2022/03/25 08:54:39;;;;;;;73.97;37.45;;;;;;;;;;5052426;28;20037;-72
2022/03/25 08:57:05;;;;;;;80.28;40.25;;;;;;;;;;5034807;28;20128;-72
2022/03/25 08:59:31;;;;;;;68.10;37.53;;;;;;;;;;5052680;28;20061;-71
2022/03/25 09:01:57;;;;;;;67.00;35.38;;;;;;;;;;5034962;28;20049;-72
2022/03/25 09:04:23;;;;;;;69.38;35.58;;;;;;;;;;5052561;28;20560;-72
2022/03/25 09:06:49;;;;;;;84.05;39.00;;;;;;;;;;5052426;28;20116;-72
2022/03/25 09:09:15;;;;;;;70.38;37.58;;;;;;;;;;5052303;28;20404;-72
2022/03/25 09:11:41;;;;;;;76.32;37.97;;;;;;;;;;5052733;28;20045;-72
2022/03/25 09:14:07;;;;;;;73.75;38.70;;;;;;;;;;5056147;28;20056;-71
2022/03/25 09:16:34;;;;;;;128.02;47.97;;;;;;;;;;5038405;28;20053;-71
2022/03/25 09:19:00;;;;;;;77.43;37.47;;;;;;;;;;5056183;28;20123;-71
2022/03/25 09:21:26;;;;;;;75.20;38.50;;;;;;;;;;5055643;28;20465;-71
2022/03/25 09:23:52;;;;;;;80.97;37.78;;;;;;;;;;5038187;28;20057;-71
2022/03/25 09:26:18;;;;;;;80.93;36.90;;;;;;;;;;5056112;28;20422;-72
2022/03/25 09:28:44;;;;;;;78.45;37.97;;;;;;;;;;5021213;28;20128;-72
2022/03/25 09:31:10;;;;;;;71.88;37.88;;;;;;;;;;5055777;28;20047;-71
2022/03/25 09:33:36;;;;;;;71.13;37.85;;;;;;;;;;5037555;28;20045;-71
2022/03/25 09:36:03;;;;;;;63.83;35.30;;;;;;;;;;5055110;28;20044;-72
2022/03/25 09:38:29;;;;;;;74.25;36.22;;;;;;;;;;5055219;28;20045;-72
2022/03/25 09:40:57;;;;;;;71.22;37.90;;;;;;;;;;5037429;28;20053;-71
2022/03/25 09:43:23;;;;;;;74.95;36.90;;;;;;;;;;5052970;28;20526;-71
2022/03/25 09:45:50;;;;;;;79.97;37.08;;;;;;;;;;5055739;28;20124;-71
2022/03/25 09:48:16;;;;;;;74.35;43.35;;;;;;;;;;5038102;28;20454;-72
2022/03/25 09:50:42;;;;;;;75.80;43.20;;;;;;;;;;5055325;28;20136;-72
2022/03/25 09:53:08;;;;;;;74.25;39.58;;;;;;;;;;5055039;28;20048;-72
2022/03/25 09:55:38;;;;;;;64.32;37.28;;;;;;;;;;5055262;28;20095;-72
2022/03/25 09:58:04;;;;;;;68.55;38.40;;;;;;;;;;5055682;28;20550;-72
2022/03/25 10:00:30;;;;;;;66.53;36.58;;;;;;;;;;5055422;28;20578;-72
2022/03/25 10:02:56;;;;;;;61.28;36.58;;;;;;;;;;5055401;28;20049;-72
2022/03/25 10:05:22;;;;;;;62.05;35.20;;;;;;;;;;5055383;28;20099;-72
2022/03/25 10:07:54;;;;;;;78.35;37.40;;;;;;;;;;5054932;28;20416;-73
2022/03/25 10:10:21;;;;;;;65.03;35.95;;;;;;;;;;5055190;28;20492;-72
2022/03/25 10:12:52;;;;;;;61.47;35.13;;;;;;;;;;5055444;28;20049;-71
2022/03/25 10:15:28;;;;;;;64.85;35.95;;;;;;;;;;5055088;28;20573;-72
2022/03/25 10:17:58;;;;;;;65.78;35.47;;;;;;;;;;5055412;28;20037;-73
2022/03/25 10:20:25;;;;;;;63.67;35.03;;;;;;;;;;5054942;28;20103;-71
2022/03/25 10:23:02;;;;;;;62.53;36.03;;;;;;;;;;5054890;28;20098;-72
2022/03/25 10:25:32;;;;;;;61.10;33.83;;;;;;;;;;5054664;28;20069;-72
2022/03/25 10:27:58;;;;;;;59.85;34.42;;;;;;;;;;5037140;28;20044;-72
2022/03/25 10:30:37;;;;;;;57.97;34.03;;;;;;;;;;5036958;28;20078;-71
2022/03/25 10:33:10;;;;;;;62.35;35.00;;;;;;;;;;5054623;28;20041;-71
2022/03/25 10:35:54;;;;;;;67.85;34.65;;;;;;;;;;5034229;28;20049;-70
2022/03/25 10:38:23;;;;;;;59.35;33.97;;;;;;;;;;5054698;28;20036;-70
2022/03/25 10:40:51;;;;;;;65.20;34.40;;;;;;;;;;5054604;28;20045;-70
2022/03/25 10:43:17;;;;;;;62.35;31.85;;;;;;;;;;5036529;28;20080;-70
2022/03/25 10:45:43;;;;;;;57.92;31.98;;;;;;;;;;5054427;28;20484;-70
2022/03/25 10:48:19;;;;;;;55.65;32.50;;;;;;;;;;5054673;28;20041;-72
2022/03/25 10:51:03;;;;;;;51.70;29.10;;;;;;;;;;5054225;28;20045;-72
2022/03/25 10:53:30;;;;;;;56.28;30.92;;;;;;;;;;5036559;28;20071;-70
2022/03/25 10:55:56;;;;;;;53.10;29.95;;;;;;;;;;5054128;28;20606;-70
2022/03/25 10:58:22;;;;;;;54.80;30.42;;;;;;;;;;5054226;28;20058;-71
2022/03/25 11:00:49;;;;;;;66.75;32.65;;;;;;;;;;5054232;28;20041;-70
2022/03/25 11:03:16;;;;;;;59.45;31.38;;;;;;;;;;5054147;28;20412;-72
2022/03/25 11:05:42;;;;;;;60.20;31.65;;;;;;;;;;5054184;28;20044;-71
2022/03/25 11:08:09;;;;;;;55.75;31.30;;;;;;;;;;5054189;28;20091;-71
2022/03/25 11:10:35;;;;;;;55.20;30.23;;;;;;;;;;5053820;28;20079;-71
2022/03/25 11:13:02;;;;;;;56.47;30.40;;;;;;;;;;5032648;28;20107;-73
2022/03/25 11:15:30;;;;;;;56.25;30.73;;;;;;;;;;5034139;28;20099;-72
2022/03/25 11:17:56;;;;;;;63.53;32.30;;;;;;;;;;5034010;28;20055;-71
2022/03/25 11:20:24;;;;;;;56.58;31.25;;;;;;;;;;5033893;28;20049;-71
2022/03/25 11:22:52;;;;;;;48.67;29.17;;;;;;;;;;5016246;28;20053;-72
2022/03/25 11:25:21;;;;;;;63.47;32.88;;;;;;;;;;5034465;28;20445;-72
2022/03/25 11:27:50;;;;;;;54.40;30.98;;;;;;;;;;5016268;28;20104;-71
2022/03/25 11:30:16;;;;;;;51.47;29.77;;;;;;;;;;5032766;28;20100;-71
2022/03/25 11:32:58;;;;;;;50.58;30.05;;;;;;;;;;5033683;28;20091;-71
2022/03/25 11:35:24;;;;;;;52.70;30.17;;;;;;;;;;5033700;28;20084;-71
2022/03/25 11:38:09;;;;;;;50.80;30.40;;;;;;;;;;5028370;28;20045;-72
2022/03/25 11:40:35;;;;;;;48.20;30.42;;;;;;;;;;5048057;28;20041;-69
2022/03/25 11:43:11;;;;;;;54.85;30.27;;;;;;;;;;5053648;28;20396;-73
2022/03/25 11:45:38;;;;;;;64.22;32.17;;;;;;;;;;5051234;28;20076;-70
2022/03/25 11:48:04;;;;;;;53.65;30.77;;;;;;;;;;5052946;28;20045;-70
2022/03/25 11:50:34;;;;;;;63.67;33.92;;;;;;;;;;5053055;28;20040;-72
2022/03/25 11:53:12;;;;;;;44.00;29.90;;;;;;;;;;5035318;28;20049;-70
2022/03/25 11:55:52;;;;;;;52.20;29.23;;;;;;;;;;5050950;28;20399;-71
2022/03/25 11:58:19;;;;;;;49.50;29.77;;;;;;;;;;5032891;28;20101;-71
2022/03/25 12:00:48;;;;;;;43.28;27.70;;;;;;;;;;5052857;28;20039;-71
2022/03/25 12:03:13;;;;;;;;;;;;;;;;;;5030041;28;20471;-71
2022/03/25 12:05:57;;;;;;;54.35;28.58;;;;;;;;;;5034785;28;19921;-71
2022/03/25 12:08:28;;;;;;;60.03;31.38;;;;;;;;;;5035253;28;20471;-71
2022/03/25 12:10:54;;;;;;;51.45;29.83;;;;;;;;;;5053331;28;20057;-71
2022/03/25 12:13:21;;;;;;;49.72;27.70;;;;;;;;;;5053184;28;20044;-71
2022/03/25 12:15:48;;;;;;;47.55;28.02;;;;;;;;;;5053217;28;20040;-71
2022/03/25 12:18:33;;;;;;;45.97;28.13;;;;;;;;;;5053218;28;20048;-71
2022/03/25 12:20:59;;;;;;;39.13;27.30;;;;;;;;;;5052743;28;20098;-71
2022/03/25 12:23:25;;;;;;;40.67;25.98;;;;;;;;;;5034927;28;20053;-72
2022/03/25 12:25:51;;;;;;;41.58;25.73;;;;;;;;;;5035433;28;20502;-71
2022/03/25 12:28:24;;;;;;;46.40;26.65;;;;;;;;;;5052903;28;20069;-71
2022/03/25 12:30:51;;;;;;;39.45;25.73;;;;;;;;;;5052532;28;20500;-71
2022/03/25 12:33:19;;;;;;;39.17;25.83;;;;;;;;;;5052485;28;20214;-72
2022/03/25 12:35:45;;;;;;;40.35;24.38;;;;;;;;;;5052605;28;20045;-69
2022/03/25 12:38:24;;;;;;;38.72;25.92;;;;;;;;;;5052923;28;20103;-69
2022/03/25 12:40:51;;;;;;;43.03;24.92;;;;;;;;;;5052777;28;20048;-69
2022/03/25 12:43:17;;;;;;;43.67;25.63;;;;;;;;;;5034951;28;20047;-69
2022/03/25 12:45:51;;;;;;;45.88;25.58;;;;;;;;;;5052598;28;20052;-69
2022/03/25 12:48:23;;;;;;;41.92;25.95;;;;;;;;;;5055527;28;20040;-70
2022/03/25 12:50:53;;;;;;;35.90;22.70;;;;;;;;;;5056615;28;20052;-70
2022/03/25 12:53:23;;;;;;;34.03;21.92;;;;;;;;;;5038775;28;20427;-69
2022/03/25 12:55:49;;;;;;;37.08;24.33;;;;;;;;;;5056335;28;20037;-70
2022/03/25 12:58:15;;;;;;;37.42;23.85;;;;;;;;;;5056566;28;20112;-70
2022/03/25 13:00:46;;;;;;;51.10;24.42;;;;;;;;;;5059381;28;20048;-69
2022/03/25 13:03:13;;;;;;;39.78;22.23;;;;;;;;;;5055844;28;20461;-69
2022/03/25 13:05:39;;;;;;;45.63;23.03;;;;;;;;;;5056082;28;20069;-69
2022/03/25 13:08:06;;;;;;;36.70;22.95;;;;;;;;;;5056274;28;20045;-70
2022/03/25 13:10:32;;;;;;;37.40;23.00;;;;;;;;;;5056073;28;20041;-69
2022/03/25 13:12:59;;;;;;;33.92;20.75;;;;;;;;;;5055810;28;20408;-69
2022/03/25 13:15:26;;;;;;;36.10;21.67;;;;;;;;;;5055814;28;20045;-70
2022/03/25 13:17:53;;;;;;;33.45;21.48;;;;;;;;;;5038345;28;20144;-70
2022/03/25 13:20:27;;;;;;;37.15;22.15;;;;;;;;;;5056180;28;20052;-70
2022/03/25 13:22:54;;;;;;;32.92;21.15;;;;;;;;;;5055986;28;20451;-69
2022/03/25 13:25:27;;;;;;;35.42;21.10;;;;;;;;;;5055958;28;20083;-69
2022/03/25 13:27:54;;;;;;;38.90;20.92;;;;;;;;;;5038002;28;20037;-70
2022/03/25 13:30:20;;;;;;;37.10;21.92;;;;;;;;;;5056117;28;20063;-69
2022/03/25 13:32:55;;;;;;;45.72;22.35;;;;;;;;;;5055953;28;20041;-70
2022/03/25 13:35:21;;;;;;;41.33;21.67;;;;;;;;;;5055972;28;20041;-69
2022/03/25 13:37:57;;;;;;;47.92;24.35;;;;;;;;;;5038002;28;20381;-69
2022/03/25 13:40:32;;;;;;;38.55;22.50;;;;;;;;;;5037864;28;20057;-69
2022/03/25 13:42:58;;;;;;;46.45;22.75;;;;;;;;;;5055449;28;20427;-70
2022/03/25 13:45:24;;;;;;;35.10;20.02;;;;;;;;;;5055883;28;20099;-69
2022/03/25 13:47:58;;;;;;;39.58;20.90;;;;;;;;;;5055566;28;20056;-69
2022/03/25 13:50:24;;;;;;;28.40;18.95;;;;;;;;;;5055538;28;20041;-69
2022/03/25 13:52:59;;;;;;;29.08;16.92;;;;;;;;;;5055401;28;20157;-69
2022/03/25 13:55:32;;;;;;;25.23;16.73;;;;;;;;;;5037956;28;20049;-69
2022/03/25 13:57:59;;;;;;;29.25;15.57;;;;;;;;;;5054708;28;20045;-70
2022/03/25 14:00:29;;;;;;;26.65;15.32;;;;;;;;;;5054991;28;20059;-71
2022/03/25 14:02:55;;;;;;;27.55;14.45;;;;;;;;;;5055496;28;20189;-70
2022/03/25 14:05:25;;;;;;;29.15;15.45;;;;;;;;;;5055112;28;20488;-70
2022/03/25 14:07:52;;;;;;;31.92;14.55;;;;;;;;;;5037198;28;20131;-70
2022/03/25 14:10:18;;;;;;;38.17;15.50;;;;;;;;;;5055357;28;20075;-70
2022/03/25 14:12:44;;;;;;;26.40;12.50;;;;;;;;;;5037623;28;20492;-70
2022/03/25 14:15:15;;;;;;;21.75;11.20;;;;;;;;;;5054983;28;20064;-70